Time;durP1;ratioP1;P1;durP2;ratioP2;P2;SDS_P1;SDS_P2;PMS_P1;PMS_P2;Temp;Humidity;BMP_temperature;BMP_pressure;BME280_temperature;BME280_humidity;BME280_pressure;Samples;Min_cycle;Max_cycle;Signal;HPM_P1;HPM_P2
2022/04/12 00:00:13;;;;;;;;;;;;;;;12.73;69.55;99870.63;4420095;32;19997;-69
2022/04/12 00:02:39;;;;;;;;;;;;;;;12.48;70.41;99873.78;4418876;32;19992;-69
2022/04/12 00:05:05;;;;;;;;;;;;;;;12.43;70.80;99869.59;4416268;32;20037;-69
2022/04/12 00:07:31;;;;;;;;;;;;;;;14.14;64.95;99864.41;4420941;32;20286;-69
2022/04/12 00:09:57;;;;;;;;;;;;;;;14.07;64.95;99863.53;4417759;32;19976;-69
2022/04/12 00:12:23;;;;;;;;;;;;;;;13.23;68.26;99867.03;4415034;32;20002;-69
2022/04/12 00:14:49;;;;;;;;;;;;;;;12.75;69.39;99863.25;4415629;32;19993;-69
2022/04/12 00:20:02;;;;;;;;;;;;;;;12.61;70.40;99858.25;4417841;32;20013;-69
2022/04/12 00:22:28;;;;;;;;;;;;;;;12.66;71.06;99860.44;4416704;32;19953;-69
2022/04/12 00:24:54;;;;;;;;;;;;;;;12.64;69.86;99865.75;4418245;32;20030;-69
2022/04/12 00:27:20;;;;;;;;;;;;;;;12.68;68.68;99863.59;4416278;32;19966;-69
2022/04/12 00:29:45;;;;;;;;;;;;;;;12.40;69.67;99862.06;4418854;32;19969;-69
2022/04/12 00:32:11;;;;;;;;;;;;;;;12.65;69.14;99858.09;4417532;32;19954;-69
2022/04/12 00:34:37;;;;;;;;;;;;;;;12.63;69.94;99852.12;4418784;32;20337;-69
2022/04/12 00:37:03;;;;;;;;;;;;;;;12.65;70.04;99841.94;4417027;32;19976;-69
2022/04/12 00:39:29;;;;;;;;;;;;;;;12.48;70.25;99840.72;4419902;32;19954;-69
2022/04/12 00:41:55;;;;;;;;;;;;;;;12.56;70.44;99829.88;4414366;32;19972;-70
2022/04/12 00:44:21;;;;;;;;;;;;;;;12.47;70.85;99824.25;4417881;32;19996;-70
2022/04/12 00:46:48;;;;;;;;;;;;;;;12.56;71.60;99810.13;4413699;32;19957;-70
2022/04/12 00:49:13;;;;;;;;;;;;;;;12.37;72.32;99808.59;4414684;32;19968;-70
2022/04/12 00:51:39;;;;;;;;;;;;;;;12.61;71.12;99815.91;4421831;32;20847;-70
2022/04/12 00:54:05;;;;;;;;;;;;;;;12.23;70.98;99829.00;4419670;32;19957;-70
2022/04/12 00:56:32;;;;;;;;;;;;;;;12.22;71.37;99842.34;4416758;32;20005;-70
2022/04/12 00:59:01;;;;;;;;;;;;;;;12.29;70.54;99846.84;4420396;32;20002;-70
2022/04/12 01:01:26;;;;;;;;;;;;;;;12.17;71.45;99836.50;4421379;32;19995;-70
2022/04/12 01:03:52;;;;;;;;;;;;;;;12.13;72.25;99833.87;4416706;32;19969;-70
2022/04/12 01:06:18;;;;;;;;;;;;;;;11.97;71.67;99834.19;4415639;32;19965;-70
2022/04/12 01:08:44;;;;;;;;;;;;;;;12.41;70.54;99832.59;4416381;32;19985;-70
2022/04/12 01:11:10;;;;;;;;;;;;;;;12.16;72.09;99835.75;4421396;32;20053;-70
2022/04/12 01:13:36;;;;;;;;;;;;;;;12.27;71.35;99829.62;4410351;32;20012;-70
2022/04/12 01:16:04;;;;;;;;;;;;;;;13.65;67.68;99831.78;4418805;32;20342;-70
2022/04/12 01:18:30;;;;;;;;;;;;;;;14.04;65.49;99833.37;4416273;32;19969;-69
2022/04/12 01:20:55;;;;;;;;;;;;;;;13.99;64.80;99833.25;4422186;32;20018;-69
2022/04/12 01:23:23;;;;;;;;;;;;;;;14.03;64.52;99833.84;4412431;32;20403;-69
2022/04/12 01:25:49;;;;;;;;;;;;;;;12.52;69.13;99827.22;4417350;32;19961;-69
2022/04/12 01:28:15;;;;;;;;;;;;;;;12.36;70.41;99824.75;4413999;32;19973;-69
2022/04/12 01:30:40;;;;;;;;;;;;;;;12.36;70.37;99819.09;4416586;32;19958;-69
2022/04/12 01:33:06;;;;;;;;;;;;;;;12.34;70.98;99815.19;4417113;32;19980;-69
2022/04/12 01:35:32;;;;;;;;;;;;;;;12.47;71.42;99802.47;4419258;32;19950;-69
2022/04/12 01:37:57;;;;;;;;;;;;;;;12.43;70.98;99812.38;4415968;32;20353;-69
2022/04/12 01:40:23;;;;;;;;;;;;;;;12.50;71.01;99806.38;4422065;32;20355;-69
2022/04/12 01:42:52;;;;;;;;;;;;;;;12.42;70.54;99805.16;4416557;32;19988;-69
2022/04/12 01:45:18;;;;;;;;;;;;;;;13.69;67.42;99804.09;4418943;32;20005;-69
2022/04/12 01:47:44;;;;;;;;;;;;;;;14.30;63.62;99799.66;4419312;32;20261;-69
2022/04/12 01:50:09;;;;;;;;;;;;;;;14.42;62.62;99797.84;4413391;32;20039;-69
2022/04/12 01:52:35;;;;;;;;;;;;;;;14.67;62.22;99800.84;4417614;32;19996;-69
2022/04/12 01:55:02;;;;;;;;;;;;;;;14.30;62.83;99788.34;4417280;32;19964;-69
2022/04/12 01:57:28;;;;;;;;;;;;;;;14.52;62.19;99783.09;4422048;32;20343;-69
2022/04/12 01:59:54;;;;;;;;;;;;;;;12.99;66.66;99775.78;4416567;32;19989;-69
2022/04/12 02:02:20;;;;;;;;;;;;;;;12.51;69.32;99774.88;4416426;32;19958;-69
2022/04/12 02:04:45;;;;;;;;;;;;;;;12.51;69.28;99774.88;4414291;32;20393;-67
2022/04/12 02:07:12;;;;;;;;;;;;;;;12.30;69.81;99763.81;4417487;32;20430;-68
2022/04/12 02:09:37;;;;;;;;;;;;;;;12.41;68.87;99752.78;4421394;32;20548;-67
2022/04/12 02:12:03;;;;;;;;;;;;;;;12.43;70.12;99755.94;4415918;32;20339;-67
2022/04/12 02:14:29;;;;;;;;;;;;;;;12.46;68.30;99758.59;4414032;32;20015;-67
2022/04/12 02:16:55;;;;;;;;;;;;;;;12.57;69.75;99764.50;4420011;32;20372;-68
2022/04/12 02:19:20;;;;;;;;;;;;;;;12.69;69.96;99772.00;4413916;32;19968;-68
2022/04/12 02:21:46;;;;;;;;;;;;;;;12.56;69.36;99760.13;4410399;32;19973;-68
2022/04/12 02:24:12;;;;;;;;;;;;;;;12.59;70.06;99770.47;4419790;32;19987;-68
2022/04/12 02:26:38;;;;;;;;;;;;;;;12.66;70.11;99780.59;4414545;32;19973;-68
2022/04/12 02:29:03;;;;;;;;;;;;;;;12.60;69.57;99768.41;4416131;32;20535;-68
2022/04/12 02:31:30;;;;;;;;;;;;;;;12.76;69.54;99770.88;4417629;32;19993;-68
2022/04/12 02:33:56;;;;;;;;;;;;;;;12.68;68.72;99770.44;4414409;32;20029;-68
2022/04/12 02:36:21;;;;;;;;;;;;;;;12.76;68.60;99766.00;4417840;32;21128;-68
2022/04/12 02:38:47;;;;;;;;;;;;;;;12.84;68.84;99769.25;4415661;32;20014;-68
2022/04/12 02:41:13;;;;;;;;;;;;;;;12.55;68.38;99764.19;4415869;32;20343;-68
2022/04/12 02:43:38;;;;;;;;;;;;;;;12.62;68.94;99769.50;4413007;32;20005;-68
2022/04/12 02:46:04;;;;;;;;;;;;;;;12.73;68.92;99758.47;4416530;32;20288;-68
2022/04/12 02:48:30;;;;;;;;;;;;;;;12.68;68.53;99753.50;4413358;32;20324;-68
2022/04/12 02:50:55;;;;;;;;;;;;;;;12.73;69.19;99761.28;4416659;32;20006;-68
2022/04/12 02:53:21;;;;;;;;;;;;;;;12.70;69.57;99756.59;4414110;32;19961;-68
2022/04/12 02:55:46;;;;;;;;;;;;;;;12.77;69.36;99759.09;4413763;32;19950;-68
2022/04/12 02:58:12;;;;;;;;;;;;;;;12.67;68.87;99753.97;4413838;32;19997;-68
2022/04/12 03:00:38;;;;;;;;;;;;;;;13.51;66.49;99761.84;4414222;32;19998;-68
2022/04/12 03:03:04;;;;;;;;;;;;;;;12.79;68.46;99750.16;4417487;32;19994;-68
2022/04/12 03:05:29;;;;;;;;;;;;;;;12.71;69.42;99746.09;4415195;32;19968;-68
2022/04/12 03:07:55;;;;;;;;;;;;;;;12.82;68.59;99752.78;4417147;32;19977;-68
2022/04/12 03:10:20;;;;;;;;;;;;;;;12.85;68.84;99759.50;4416397;32;20001;-68
2022/04/12 03:12:46;;;;;;;;;;;;;;;12.66;68.84;99772.16;4417378;32;20228;-68
2022/04/12 03:15:11;;;;;;;;;;;;;;;12.75;69.03;99775.72;4414890;32;19966;-68
2022/04/12 03:17:37;;;;;;;;;;;;;;;12.64;69.25;99775.44;4413757;32;20366;-68
2022/04/12 03:20:03;;;;;;;;;;;;;;;12.75;69.37;99772.91;4417673;32;20343;-68
2022/04/12 03:22:28;;;;;;;;;;;;;;;12.75;68.96;99777.75;4416197;32;20339;-68
2022/04/12 03:24:55;;;;;;;;;;;;;;;12.85;69.41;99768.78;4416927;32;20365;-68
2022/04/12 03:27:20;;;;;;;;;;;;;;;13.08;69.10;99768.06;4413369;32;20401;-68
2022/04/12 03:29:46;;;;;;;;;;;;;;;13.30;67.65;99764.97;4414760;32;19998;-68
2022/04/12 03:32:11;;;;;;;;;;;;;;;12.96;68.66;99760.56;4415118;32;20308;-68
2022/04/12 03:34:39;;;;;;;;;;;;;;;12.99;68.50;99770.13;4418867;32;19949;-68
2022/04/12 03:37:05;;;;;;;;;;;;;;;12.96;68.28;99766.22;4415002;32;21619;-69
2022/04/12 03:39:30;;;;;;;;;;;;;;;12.97;69.23;99759.31;4418145;32;19973;-69
2022/04/12 03:41:56;;;;;;;;;;;;;;;12.87;66.05;99752.16;4420227;32;19985;-69
2022/04/12 03:44:22;;;;;;;;;;;;;;;13.02;67.14;99761.53;4414742;32;20016;-68
2022/04/12 03:46:47;;;;;;;;;;;;;;;12.87;68.32;99749.31;4412831;32;20392;-69
2022/04/12 03:49:13;;;;;;;;;;;;;;;12.95;69.49;99747.69;4414124;32;20175;-69
2022/04/12 03:51:38;;;;;;;;;;;;;;;12.93;69.21;99749.44;4415051;32;19962;-69
2022/04/12 03:54:04;;;;;;;;;;;;;;;12.80;69.60;99738.38;4411890;32;20012;-69
2022/04/12 03:56:30;;;;;;;;;;;;;;;12.88;69.85;99730.31;4416253;32;19989;-68
2022/04/12 03:58:59;;;;;;;;;;;;;;;12.87;68.30;99721.09;4415667;32;20219;-68
2022/04/12 04:01:25;;;;;;;;;;;;;;;12.82;68.61;99730.19;4410749;32;20002;-69
2022/04/12 04:03:51;;;;;;;;;;;;;;;12.88;68.59;99725.47;4413142;32;19957;-69
2022/04/12 04:06:17;;;;;;;;;;;;;;;12.91;68.75;99721.69;4414823;32;20344;-69
2022/04/12 04:08:43;;;;;;;;;;;;;;;12.93;68.83;99724.03;4415050;32;19962;-69
2022/04/12 04:11:09;;;;;;;;;;;;;;;12.83;69.70;99723.31;4412506;32;20043;-69
2022/04/12 04:13:36;;;;;;;;;;;;;;;12.82;69.20;99737.91;4413972;32;19960;-68
2022/04/12 04:16:03;;;;;;;;;;;;;;;12.76;69.92;99732.13;4413410;32;20012;-68
2022/04/12 04:18:28;;;;;;;;;;;;;;;12.67;69.29;99729.31;4414001;32;20445;-67
2022/04/12 04:20:54;;;;;;;;;;;;;;;12.66;69.62;99730.59;4421094;32;20292;-68
2022/04/12 04:23:21;;;;;;;;;;;;;;;12.57;69.41;99718.56;4412143;32;20330;-69
2022/04/12 04:25:47;;;;;;;;;;;;;;;12.66;69.61;99713.66;4418348;32;19989;-69
2022/04/12 04:28:13;;;;;;;;;;;;;;;12.51;70.53;99695.84;4417634;32;19957;-69
2022/04/12 04:30:44;;;;;;;;;;;;;;;12.62;69.65;99687.66;4419173;32;20249;-69
2022/04/12 04:33:10;;;;;;;;;;;;;;;12.59;69.86;99696.28;4414977;32;20290;-69
2022/04/12 04:35:36;;;;;;;;;;;;;;;12.56;69.67;99700.84;4416456;32;19981;-69
2022/04/12 04:38:03;;;;;;;;;;;;;;;12.41;69.67;99691.50;4417278;32;19985;-69
2022/04/12 04:40:28;;;;;;;;;;;;;;;12.28;71.11;99676.84;4414903;32;19992;-69
2022/04/12 04:42:54;;;;;;;;;;;;;;;12.27;71.33;99686.53;4418054;32;19997;-69
2022/04/12 04:45:19;;;;;;;;;;;;;;;12.06;71.62;99691.16;4415542;32;19953;-69
2022/04/12 04:47:53;;;;;;;;;;;;;;;12.20;70.32;99688.91;4413980;32;20295;-69
2022/04/12 04:50:19;;;;;;;;;;;;;;;12.35;70.53;99684.94;4394218;32;20024;-69
2022/04/12 04:52:45;;;;;;;;;;;;;;;12.38;70.25;99692.47;4418928;32;19976;-69
2022/04/12 04:55:11;;;;;;;;;;;;;;;12.24;70.71;99684.66;4418736;32;19984;-69
2022/04/12 04:57:38;;;;;;;;;;;;;;;12.07;71.29;99692.72;4421875;32;20031;-69
2022/04/12 05:00:05;;;;;;;;;;;;;;;11.92;72.25;99691.03;4414929;32;20242;-70
2022/04/12 05:02:32;;;;;;;;;;;;;;;11.88;72.32;99688.37;4417688;32;19950;-69
2022/04/12 05:04:57;;;;;;;;;;;;;;;12.00;71.73;99692.28;4419881;32;20012;-69
2022/04/12 05:07:25;;;;;;;;;;;;;;;12.10;72.02;99688.94;4415615;32;19946;-67
2022/04/12 05:09:52;;;;;;;;;;;;;;;12.02;72.81;99687.72;4418181;32;19979;-69
2022/04/12 05:12:17;;;;;;;;;;;;;;;11.83;72.08;99671.31;4416905;32;19953;-69
2022/04/12 05:14:42;;;;;;;;;;;;;;;11.78;72.72;99686.81;4417984;32;19957;-67
2022/04/12 05:17:08;;;;;;;;;;;;;;;11.78;73.08;99686.03;4416908;32;19953;-69
2022/04/12 05:19:34;;;;;;;;;;;;;;;11.80;73.50;99678.69;4418760;32;20068;-69
2022/04/12 05:22:00;;;;;;;;;;;;;;;11.88;72.96;99679.91;4416104;32;20317;-69
2022/04/12 05:24:25;;;;;;;;;;;;;;;11.90;73.47;99682.25;4416587;32;20352;-69
2022/04/12 05:26:51;;;;;;;;;;;;;;;11.93;73.37;99687.75;4421250;32;20574;-69
2022/04/12 05:29:16;;;;;;;;;;;;;;;11.93;72.86;99681.31;4413414;32;20000;-69
2022/04/12 05:31:42;;;;;;;;;;;;;;;12.03;72.87;99674.41;4414040;32;20399;-69
2022/04/12 05:34:08;;;;;;;;;;;;;;;12.12;73.02;99656.69;4414873;32;19957;-69
2022/04/12 05:36:34;;;;;;;;;;;;;;;12.02;72.92;99664.38;4421693;32;19950;-69
2022/04/12 05:38:59;;;;;;;;;;;;;;;13.12;70.53;99672.63;4416065;32;19957;-69
2022/04/12 05:41:25;;;;;;;;;;;;;;;14.16;64.58;99666.63;4416444;32;19968;-69
2022/04/12 05:43:51;;;;;;;;;;;;;;;12.48;70.35;99673.44;4412866;32;19981;-69
2022/04/12 05:46:16;;;;;;;;;;;;;;;12.72;69.48;99662.97;4416928;32;19988;-69
2022/04/12 05:48:42;;;;;;;;;;;;;;;12.88;69.01;99662.56;4418525;32;20382;-69
2022/04/12 05:51:08;;;;;;;;;;;;;;;12.47;70.50;99666.25;4416900;32;20025;-69
2022/04/12 05:53:34;;;;;;;;;;;;;;;13.01;69.27;99669.56;4422082;32;19971;-69
2022/04/12 05:56:01;;;;;;;;;;;;;;;12.68;69.67;99654.69;4417597;32;20003;-69
2022/04/12 05:58:27;;;;;;;;;;;;;;;12.94;69.46;99669.91;4415049;32;19993;-69
2022/04/12 06:00:52;;;;;;;;;;;;;;;12.87;68.75;99658.97;4414760;32;19965;-69
2022/04/12 06:03:17;;;;;;;;;;;;;;;13.23;67.78;99653.06;4416144;32;19953;-69
2022/04/12 06:05:43;;;;;;;;;;;;;;;12.83;69.46;99640.66;4420708;32;20046;-69
2022/04/12 06:08:09;;;;;;;;;;;;;;;13.05;68.01;99643.97;4418902;32;20013;-69
2022/04/12 06:10:34;;;;;;;;;;;;;;;13.53;67.07;99668.84;4414182;32;20295;-69
2022/04/12 06:13:00;;;;;;;;;;;;;;;13.50;65.43;99677.53;4412479;32;20391;-69
2022/04/12 06:15:27;;;;;;;;;;;;;;;13.55;66.35;99674.81;4418892;32;19989;-69
2022/04/12 06:17:52;;;;;;;;;;;;;;;13.64;65.80;99686.03;4421074;32;19985;-69
2022/04/12 06:20:19;;;;;;;;;;;;;;;13.56;64.30;99701.78;4410003;32;19989;-69
2022/04/12 06:22:45;;;;;;;;;;;;;;;13.14;66.81;99700.41;4415654;32;20336;-69
2022/04/12 06:25:11;;;;;;;;;;;;;;;13.16;67.65;99700.72;4420905;32;19953;-69
2022/04/12 06:27:39;;;;;;;;;;;;;;;13.24;68.40;99699.88;4411256;32;20013;-69
2022/04/12 06:30:06;;;;;;;;;;;;;;;13.53;67.24;99704.84;4416809;32;19984;-69
2022/04/12 06:32:32;;;;;;;;;;;;;;;12.91;66.71;99701.13;4415035;32;19954;-69
2022/04/12 06:34:59;;;;;;;;;;;;;;;13.22;67.71;99707.25;4416944;32;20025;-69
2022/04/12 06:37:25;;;;;;;;;;;;;;;13.25;66.88;99712.72;4414323;32;20393;-69
2022/04/12 06:39:51;;;;;;;;;;;;;;;13.68;66.05;99711.28;4418290;32;20416;-69
2022/04/12 06:42:17;;;;;;;;;;;;;;;13.50;66.98;99711.44;4413324;32;20005;-69
2022/04/12 06:44:43;;;;;;;;;;;;;;;13.77;65.05;99700.69;4414279;32;20066;-70
2022/04/12 06:47:08;;;;;;;;;;;;;;;13.51;66.06;99699.66;4416104;32;20351;-69
2022/04/12 06:49:34;;;;;;;;;;;;;;;14.25;64.48;99704.16;4416073;32;20384;-69
2022/04/12 06:52:00;;;;;;;;;;;;;;;14.16;65.29;99689.28;4414717;32;20012;-69
2022/04/12 06:54:26;;;;;;;;;;;;;;;14.30;63.49;99699.84;4412573;32;19961;-69
2022/04/12 06:56:52;;;;;;;;;;;;;;;14.19;64.88;99703.25;4414601;32;19993;-69
2022/04/12 06:59:17;;;;;;;;;;;;;;;15.22;60.80;99704.59;4414769;32;20027;-69
2022/04/12 07:01:43;;;;;;;;;;;;;;;14.42;62.99;99698.78;4410578;32;19962;-69
2022/04/12 07:04:09;;;;;;;;;;;;;;;14.18;63.78;99698.06;4416804;32;20002;-69
2022/04/12 07:06:35;;;;;;;;;;;;;;;14.14;63.45;99700.31;4419529;32;19949;-69
2022/04/12 07:09:01;;;;;;;;;;;;;;;14.23;64.07;99700.22;4418795;32;20005;-69
2022/04/12 07:11:26;;;;;;;;;;;;;;;14.41;64.30;99717.78;4412104;32;20236;-69
2022/04/12 07:13:52;;;;;;;;;;;;;;;14.59;63.72;99720.41;4414401;32;20021;-69
2022/04/12 07:16:18;;;;;;;;;;;;;;;14.83;61.33;99704.06;4415909;32;19981;-69
2022/04/12 07:18:44;;;;;;;;;;;;;;;15.00;60.02;99707.12;4418366;32;19960;-69
2022/04/12 07:21:09;;;;;;;;;;;;;;;14.63;62.07;99697.56;4415962;32;19988;-69
2022/04/12 07:23:36;;;;;;;;;;;;;;;14.67;61.97;99698.13;4413884;32;20474;-69
2022/04/12 07:26:03;;;;;;;;;;;;;;;14.70;62.99;99705.66;4411158;32;19980;-69
2022/04/12 07:28:28;;;;;;;;;;;;;;;14.82;62.68;99710.22;4417698;32;20295;-69
2022/04/12 07:30:54;;;;;;;;;;;;;;;14.85;61.72;99715.66;4415320;32;19957;-69
2022/04/12 07:33:20;;;;;;;;;;;;;;;15.87;60.78;99703.87;4415276;32;19954;-69
2022/04/12 07:35:46;;;;;;;;;;;;;;;15.02;61.36;99713.84;4415106;32;19953;-69
2022/04/12 07:38:12;;;;;;;;;;;;;;;14.49;61.13;99704.03;4418036;32;19975;-69
2022/04/12 07:40:38;;;;;;;;;;;;;;;14.66;62.07;99688.84;4417196;32;20046;-69
2022/04/12 07:43:04;;;;;;;;;;;;;;;14.45;61.81;99683.63;4414949;32;19962;-69
2022/04/12 07:45:29;;;;;;;;;;;;;;;14.40;62.41;99684.31;4417654;32;20029;-69
2022/04/12 07:47:55;;;;;;;;;;;;;;;14.37;62.76;99683.25;4413245;32;20026;-69
2022/04/12 07:50:21;;;;;;;;;;;;;;;14.28;62.63;99677.69;4409994;32;20254;-69
2022/04/12 07:52:47;;;;;;;;;;;;;;;14.15;63.76;99674.38;4414223;32;19999;-69
2022/04/12 07:55:13;;;;;;;;;;;;;;;14.19;64.25;99683.44;4412459;32;19973;-69
2022/04/12 07:57:42;;;;;;;;;;;;;;;14.45;63.16;99683.63;4413116;32;19953;-69
2022/04/12 08:00:08;;;;;;;;;;;;;;;16.13;58.49;99686.84;4412734;32;19973;-69
2022/04/12 08:02:34;;;;;;;;;;;;;;;14.39;61.87;99683.53;4414772;32;19949;-69
2022/04/12 08:05:00;;;;;;;;;;;;;;;14.34;63.56;99687.06;4415677;32;20303;-69
2022/04/12 08:07:25;;;;;;;;;;;;;;;14.25;63.32;99690.00;4415933;32;19957;-69
2022/04/12 08:09:51;;;;;;;;;;;;;;;14.36;64.86;99690.16;4417664;32;19972;-69
2022/04/12 08:12:17;;;;;;;;;;;;;;;14.40;65.05;99682.28;4422301;32;20373;-69
2022/04/12 08:14:42;;;;;;;;;;;;;;;14.32;65.33;99674.66;4414269;32;19958;-69
2022/04/12 08:17:08;;;;;;;;;;;;;;;14.44;65.14;99676.41;4415945;32;20033;-69
2022/04/12 08:19:33;;;;;;;;;;;;;;;14.43;65.78;99669.97;4421464;32;19971;-69
2022/04/12 08:22:00;;;;;;;;;;;;;;;14.51;65.04;99673.94;4414058;32;19958;-69
2022/04/12 08:24:26;;;;;;;;;;;;;;;14.56;64.96;99667.59;4416053;32;20240;-69
2022/04/12 08:26:52;;;;;;;;;;;;;;;14.17;64.75;99671.06;4417302;32;20227;-69
2022/04/12 08:29:17;;;;;;;;;;;;;;;14.29;64.48;99658.69;4415848;32;19957;-69
2022/04/12 08:31:43;;;;;;;;;;;;;;;14.31;65.14;99658.94;4418450;32;19965;-69
2022/04/12 08:34:08;;;;;;;;;;;;;;;14.33;66.06;99657.19;4419796;32;19972;-69
2022/04/12 08:36:34;;;;;;;;;;;;;;;14.52;65.05;99654.91;4416269;32;20015;-69
2022/04/12 08:38:59;;;;;;;;;;;;;;;14.58;64.13;99648.06;4417103;32;19986;-69
2022/04/12 08:41:26;;;;;;;;;;;;;;;14.53;64.41;99650.81;4419418;32;20349;-69
2022/04/12 08:43:59;;;;;;;;;;;;;;;14.66;64.53;99657.72;4413592;32;19953;-69
2022/04/12 08:46:25;;;;;;;;;;;;;;;14.69;63.90;99658.75;4415413;32;19950;-69
2022/04/12 08:48:53;;;;;;;;;;;;;;;14.76;63.41;99672.53;4421521;32;20388;-69
2022/04/12 08:51:21;;;;;;;;;;;;;;;14.50;64.75;99680.87;4416921;32;19988;-69
2022/04/12 08:53:46;;;;;;;;;;;;;;;14.48;63.63;99686.25;4419199;32;19958;-68
2022/04/12 08:56:12;;;;;;;;;;;;;;;14.55;65.08;99680.22;4415182;32;19957;-69
2022/04/12 08:58:38;;;;;;;;;;;;;;;14.77;63.64;99691.06;4418236;32;20194;-69
2022/04/12 09:01:03;;;;;;;;;;;;;;;14.56;64.16;99678.94;4419499;32;20016;-69
2022/04/12 09:03:29;;;;;;;;;;;;;;;14.43;64.19;99666.34;4416603;32;19997;-69
2022/04/12 09:05:56;;;;;;;;;;;;;;;14.49;65.14;99655.91;4416737;32;19969;-69
2022/04/12 09:08:25;;;;;;;;;;;;;;;14.60;65.55;99656.09;4416295;32;20026;-69
2022/04/12 09:10:57;;;;;;;;;;;;;;;14.59;64.38;99648.84;4418235;32;20381;-69
2022/04/12 09:13:22;;;;;;;;;;;;;;;14.80;63.72;99645.56;4409996;32;20014;-69
2022/04/12 09:15:48;;;;;;;;;;;;;;;14.69;64.19;99655.94;4418910;32;20004;-68
2022/04/12 09:18:13;;;;;;;;;;;;;;;14.77;64.10;99651.44;4415522;32;20307;-68
2022/04/12 09:20:41;;;;;;;;;;;;;;;14.15;65.59;99663.06;4417540;32;20308;-68
2022/04/12 09:23:14;;;;;;;;;;;;;;;13.88;67.65;99655.66;4420841;32;19949;-68
2022/04/12 09:25:51;;;;;;;;;;;;;;;13.98;68.37;99662.75;4416499;32;19958;-68
2022/04/12 09:28:17;;;;;;;;;;;;;;;14.05;69.09;99665.19;4421921;32;19993;-68
2022/04/12 09:30:43;;;;;;;;;;;;;;;14.08;69.12;99671.91;4415217;32;20417;-68
2022/04/12 09:33:08;;;;;;;;;;;;;;;13.96;67.97;99667.31;4417399;32;19957;-68
2022/04/12 09:35:34;;;;;;;;;;;;;;;14.00;68.88;99670.75;4419389;32;19950;-68
2022/04/12 09:37:59;;;;;;;;;;;;;;;13.92;68.27;99675.22;4421815;32;19965;-68
2022/04/12 09:40:25;;;;;;;;;;;;;;;13.84;67.27;99688.97;4419178;32;19957;-68
2022/04/12 09:42:52;;;;;;;;;;;;;;;13.66;69.09;99691.97;4418446;32;19953;-68
2022/04/12 09:48:02;;;;;;;;;;;;;;;14.48;69.91;99702.47;3961922;31;15850709;-67
2022/04/12 09:50:29;;;;;;;;;;;;;;;14.48;69.91;99702.47;4455548;32;19957;-68
2022/04/12 09:58:10;;;;;;;;;;;;;;;14.71;68.69;99719.31;3957269;32;15723557;-66
2022/04/12 10:00:35;;;;;;;;;;;;;;;14.71;68.69;99719.31;4433749;32;19953;-66
2022/04/12 10:03:02;;;;;;;;;;;;;;;14.16;68.59;99724.00;4429006;32;20002;-67
2022/04/12 10:05:28;;;;;;;;;;;;;;;13.95;68.43;99745.75;4434182;32;20000;-67
2022/04/12 10:07:55;;;;;;;;;;;;;;;13.91;68.79;99748.00;4429899;32;20048;-67
2022/04/12 10:10:23;;;;;;;;;;;;;;;13.83;68.75;99749.63;4432527;32;19959;-68
2022/04/12 10:12:48;;;;;;;;;;;;;;;13.67;68.32;99752.13;4433092;32;19992;-68
2022/04/12 10:15:14;;;;;;;;;;;;;;;13.46;69.61;99728.56;4432255;32;19992;-69
2022/04/12 10:17:40;;;;;;;;;;;;;;;13.65;71.74;99695.28;4415201;32;20448;-69
2022/04/12 10:20:06;;;;;;;;;;;;;;;13.61;71.62;99669.25;4435131;32;19957;-69
2022/04/12 10:22:33;;;;;;;;;;;;;;;13.61;72.50;99653.09;4428559;32;20245;-69
2022/04/12 10:24:59;;;;;;;;;;;;;;;13.80;72.35;99664.97;4430899;32;20318;-67
2022/04/12 10:27:25;;;;;;;;;;;;;;;13.83;72.32;99659.13;4430709;32;20370;-67
2022/04/12 10:30:10;;;;;;;;;;;;;;;14.48;71.25;99660.78;4426515;32;19964;-67
2022/04/12 10:32:36;;;;;;;;;;;;;;;14.10;72.39;99655.25;4426090;32;19957;-67
2022/04/12 10:35:03;;;;;;;;;;;;;;;14.26;71.97;99642.69;4428936;32;20011;-67
2022/04/12 10:37:30;;;;;;;;;;;;;;;14.30;70.45;99632.69;4432170;32;20304;-67
2022/04/12 10:40:00;;;;;;;;;;;;;;;14.50;70.87;99640.47;4429907;32;19958;-67
2022/04/12 10:42:28;;;;;;;;;;;;;;;14.61;70.86;99635.78;4427938;32;20097;-67
2022/04/12 10:44:56;;;;;;;;;;;;;;;14.87;69.80;99633.03;4428747;32;20001;-67
2022/04/12 10:47:41;;;;;;;;;;;;;;;14.93;68.67;99642.37;4432911;32;19957;-68
2022/04/12 10:50:10;;;;;;;;;;;;;;;14.90;68.33;99643.37;4419957;32;19987;-69
2022/04/12 10:55:19;;;;;;;;;;;;;;;15.34;67.82;99616.38;3955829;32;15722651;-69
2022/04/12 10:57:45;;;;;;;;;;;;;;;15.34;67.82;99616.38;4430728;32;20006;-69
2022/04/12 11:00:15;;;;;;;;;;;;;;;14.92;70.23;99618.97;4434603;32;19969;-69
2022/04/12 11:05:36;;;;;;;;;;;;;;;15.41;67.49;99598.19;3953810;32;15724639;-68
2022/04/12 11:13:28;;;;;;;;;;;;;;;15.68;67.27;99600.53;3957742;32;15724564;-70
2022/04/12 11:15:54;;;;;;;;;;;;;;;15.68;67.27;99600.53;4434140;32;19953;-70
2022/04/12 11:18:20;;;;;;;;;;;;;;;15.26;68.02;99591.78;4430005;32;19985;-70
2022/04/12 11:20:57;;;;;;;;;;;;;;;14.60;69.48;99590.97;4438671;32;20052;-70
2022/04/12 11:23:42;;;;;;;;;;;;;;;15.54;65.61;99582.34;4428692;32;20023;-70
2022/04/12 11:26:28;;;;;;;;;;;;;;;15.47;65.38;99584.84;4432576;32;19964;-70
2022/04/12 11:28:56;;;;;;;;;;;;;;;15.70;66.00;99595.91;4431930;32;19949;-70
2022/04/12 11:31:22;;;;;;;;;;;;;;;14.91;68.00;99593.97;4433281;32;19957;-70
2022/04/12 11:33:48;;;;;;;;;;;;;;;14.92;68.50;99604.00;4428872;32;19954;-70
2022/04/12 11:36:16;;;;;;;;;;;;;;;15.01;67.55;99606.69;4431198;32;20009;-70
2022/04/12 11:38:42;;;;;;;;;;;;;;;15.11;68.22;99603.22;4433906;32;19950;-70
2022/04/12 11:41:07;;;;;;;;;;;;;;;15.20;68.00;99605.13;4427451;32;19949;-70
2022/04/12 11:43:33;;;;;;;;;;;;;;;14.93;68.97;99603.50;4429756;32;19949;-70
2022/04/12 11:45:59;;;;;;;;;;;;;;;15.63;65.09;99604.09;4430948;32;20368;-71
2022/04/12 11:48:28;;;;;;;;;;;;;;;15.71;64.87;99610.88;4431825;32;20360;-68
2022/04/12 11:50:55;;;;;;;;;;;;;;;15.52;66.57;99603.97;4431640;32;20279;-69
2022/04/12 11:53:22;;;;;;;;;;;;;;;14.84;69.39;99606.47;4431584;32;20366;-70
2022/04/12 11:55:47;;;;;;;;;;;;;;;14.77;68.88;99600.44;4427596;32;19957;-69
2022/04/12 11:58:14;;;;;;;;;;;;;;;15.10;67.69;99592.38;4432455;32;19971;-69
2022/04/12 12:00:40;;;;;;;;;;;;;;;15.35;67.22;99600.16;4431999;32;20355;-69
2022/04/12 12:03:12;;;;;;;;;;;;;;;15.34;67.41;99607.88;4436100;32;20027;-69
2022/04/12 12:05:37;;;;;;;;;;;;;;;15.40;68.24;99591.72;4435039;32;20024;-70
2022/04/12 12:08:03;;;;;;;;;;;;;;;15.65;67.39;99604.37;4434145;32;20417;-69
2022/04/12 12:10:30;;;;;;;;;;;;;;;15.81;66.18;99595.25;4432832;32;19976;-69
2022/04/12 12:12:55;;;;;;;;;;;;;;;16.00;65.85;99587.91;4430633;32;19991;-70
2022/04/12 12:15:23;;;;;;;;;;;;;;;16.16;64.88;99592.94;4429406;32;20016;-69
2022/04/12 12:17:50;;;;;;;;;;;;;;;16.31;64.46;99596.41;4434358;32;20438;-69
2022/04/12 12:20:17;;;;;;;;;;;;;;;16.53;63.59;99590.91;4430808;32;20033;-69
2022/04/12 12:22:43;;;;;;;;;;;;;;;16.58;62.23;99581.66;4429184;32;19984;-69
2022/04/12 12:25:10;;;;;;;;;;;;;;;16.69;63.05;99587.41;4423405;32;19981;-69
2022/04/12 12:27:36;;;;;;;;;;;;;;;16.81;62.89;99576.88;4419318;32;20280;-69
2022/04/12 12:32:40;;;;;;;;;;;;;;;16.80;62.48;99573.25;3952567;32;15723326;-69
2022/04/12 12:35:06;;;;;;;;;;;;;;;16.76;62.00;99586.94;4435197;32;20300;-69
2022/04/12 12:37:32;;;;;;;;;;;;;;;16.70;62.06;99583.28;4426162;32;20272;-69
2022/04/12 12:39:58;;;;;;;;;;;;;;;16.77;63.03;99587.69;4433541;32;20011;-69
2022/04/12 12:42:23;;;;;;;;;;;;;;;17.17;61.72;99588.16;4430396;32;19949;-69
2022/04/12 12:44:48;;;;;;;;;;;;;;;17.09;58.71;99592.00;4434953;32;20007;-69
2022/04/12 12:47:14;;;;;;;;;;;;;;;16.93;61.06;99587.78;4437479;32;19977;-69
2022/04/12 12:49:41;;;;;;;;;;;;;;;17.58;60.13;99594.25;4432318;32;19975;-68
2022/04/12 12:52:07;;;;;;;;;;;;;;;18.08;57.68;99605.69;4428809;32;19972;-68
2022/04/12 12:54:33;;;;;;;;;;;;;;;17.98;56.31;99604.37;4432438;32;20032;-68
2022/04/12 12:57:01;;;;;;;;;;;;;;;18.35;56.26;99613.44;4430419;32;20612;-68
2022/04/12 12:59:28;;;;;;;;;;;;;;;18.56;55.64;99609.81;4431741;32;19968;-68
2022/04/12 13:01:54;;;;;;;;;;;;;;;18.33;56.76;99611.13;4434572;32;20367;-68
2022/04/12 13:09:41;;;;;;;;;;;;;;;19.16;55.03;99633.75;3955113;32;15722594;-69